M I D A S
Marine Information and Data Acquisition System
Tripno 1523 of the Zeeleeuw from 2008-07-22 06:44:23 to 2008-07-22 12:24:34
Back to CruiseResearch ActivitiesStationsMapUnderway DataData graphs

EquipmentUnitsComments
TimeDGPSUTC
LatitudeDGPSDM.mWGS84
LongitudeDGPSDM.mWGS84
SpeedMeteo Stationm/sRelative wind speed
DirectionMeteo StationdegRelative wind direction
TemperatureMeteo Stationdeg CelciusAir temperature
PressureMeteo StationPaAtmospheric pressure
HumidityMeteo Station%Relative humidity
Missing or incorrect values are displayed as -999
Metereological data collected by the RV Zeeleeuw from 2008-07-22 06:46:12 to 2008-07-22 12:28:47
                                                                                    Next 1000 lines
Time Latitude Longitude Speed Direction Temperature Pressure Humidity
2008-07-22 06:46:22 51°13.623 2°56.044 -999 -999 -999 -999 -999
2008-07-22 06:46:27 51°13.624 2°56.042 -999 -999 -999 -999 -999
2008-07-22 06:46:32 51°13.624 2°56.04 -999 -999 -999 -999 -999
2008-07-22 06:46:37 51°13.625 2°56.036 -999 -999 -999 -999 -999
2008-07-22 06:46:42 51°13.626 2°56.033 -999 -999 -999 -999 -999
2008-07-22 06:46:47 51°13.627 2°56.028 -999 -999 -999 -999 -999
2008-07-22 06:46:52 51°13.629 2°56.023 -999 -999 -999 -999 -999
2008-07-22 06:46:57 51°13.63 2°56.018 -999 -999 -999 -999 -999
2008-07-22 06:47:02 51°13.632 2°56.012 -999 -999 -999 -999 -999
2008-07-22 06:47:07 51°13.633 2°56.006 -999 -999 -999 -999 -999
2008-07-22 06:47:12 51°13.635 2°55.999 -999 -999 -999 -999 -999
2008-07-22 06:47:17 51°13.636 2°55.992 -999 -999 -999 -999 -999
2008-07-22 06:47:22 51°13.638 2°55.985 -999 -999 -999 -999 -999
2008-07-22 06:47:27 51°13.64 2°55.978 -999 -999 -999 -999 -999
2008-07-22 06:47:32 51°13.641 2°55.97 -999 -999 -999 -999 -999
2008-07-22 06:47:37 51°13.643 2°55.962 -999 -999 -999 -999 -999
2008-07-22 06:47:42 51°13.644 2°55.954 -999 -999 -999 -999 -999
2008-07-22 06:47:47 51°13.646 2°55.946 -999 -999 -999 -999 -999
2008-07-22 06:47:52 51°13.648 2°55.937 -999 -999 -999 -999 -999
2008-07-22 06:47:57 51°13.65 2°55.928 -999 -999 -999 -999 -999
2008-07-22 06:48:02 51°13.652 2°55.92 -999 -999 -999 -999 -999
2008-07-22 06:48:07 51°13.654 2°55.911 -999 -999 -999 -999 -999
2008-07-22 06:48:12 51°13.657 2°55.902 -999 -999 -999 -999 -999
2008-07-22 06:48:17 51°13.659 2°55.894 -999 -999 -999 -999 -999
2008-07-22 06:48:22 51°13.662 2°55.885 -999 -999 -999 -999 -999
2008-07-22 06:48:27 51°13.665 2°55.876 -999 -999 -999 -999 -999
2008-07-22 06:48:32 51°13.668 2°55.867 -999 -999 -999 -999 -999
2008-07-22 06:48:37 51°13.671 2°55.858 -999 -999 -999 -999 -999
2008-07-22 06:48:42 51°13.674 2°55.85 -999 -999 -999 -999 -999
2008-07-22 06:48:47 51°13.677 2°55.842 -999 -999 -999 -999 -999
2008-07-22 06:48:52 51°13.68 2°55.834 -999 -999 -999 -999 -999
2008-07-22 06:48:57 51°13.683 2°55.826 -999 -999 -999 -999 -999
2008-07-22 06:49:02 51°13.687 2°55.818 -999 -999 -999 -999 -999
2008-07-22 06:49:07 51°13.69 2°55.811 -999 -999 -999 -999 -999
2008-07-22 06:49:12 51°13.694 2°55.802 -999 -999 -999 -999 -999
2008-07-22 06:49:17 51°13.697 2°55.795 -999 -999 -999 -999 -999
2008-07-22 06:49:22 51°13.7 2°55.788 -999 -999 -999 -999 -999
2008-07-22 06:49:27 51°13.703 2°55.781 -999 -999 -999 -999 -999
2008-07-22 06:49:32 51°13.706 2°55.775 -999 -999 -999 -999 -999
2008-07-22 06:49:37 51°13.708 2°55.77 -999 -999 -999 -999 -999
2008-07-22 06:49:41 51°13.71 2°55.766 -999 -999 -999 -999 -999
2008-07-22 06:49:46 51°13.712 2°55.763 -999 -999 -999 -999 -999
2008-07-22 06:49:52 51°13.713 2°55.76 -999 -999 -999 -999 -999
2008-07-22 06:49:57 51°13.713 2°55.759 -999 -999 -999 -999 -999
2008-07-22 06:50:01 51°13.714 2°55.759 -999 -999 -999 -999 -999
2008-07-22 06:50:06 51°13.714 2°55.76 -999 -999 -999 -999 -999
2008-07-22 06:50:11 51°13.714 2°55.762 -999 -999 -999 -999 -999
2008-07-22 06:50:17 51°13.714 2°55.765 -999 -999 -999 -999 -999
2008-07-22 06:50:21 51°13.714 2°55.768 -999 -999 -999 -999 -999
2008-07-22 06:50:26 51°13.715 2°55.773 -999 -999 -999 -999 -999
2008-07-22 06:50:32 51°13.716 2°55.778 -999 -999 -999 -999 -999
2008-07-22 06:50:37 51°13.716 2°55.781 -999 -999 -999 -999 -999
2008-07-22 06:50:41 51°13.717 2°55.784 -999 -999 -999 -999 -999
2008-07-22 06:50:46 51°13.718 2°55.786 -999 -999 -999 -999 -999
2008-07-22 06:50:51 51°13.718 2°55.787 -999 -999 -999 -999 -999
2008-07-22 06:50:57 51°13.719 2°55.788 -999 -999 -999 -999 -999
2008-07-22 06:51:01 51°13.719 2°55.788 -999 -999 -999 -999 -999
2008-07-22 06:51:06 51°13.718 2°55.787 -999 -999 -999 -999 -999
2008-07-22 06:51:11 51°13.718 2°55.785 -999 -999 -999 -999 -999
2008-07-22 06:51:17 51°13.717 2°55.782 -999 -999 -999 -999 -999
2008-07-22 06:51:21 51°13.716 2°55.78 -999 -999 -999 -999 -999
2008-07-22 06:51:27 51°13.714 2°55.775 -999 -999 -999 -999 -999
2008-07-22 06:51:32 51°13.713 2°55.771 -999 -999 -999 -999 -999
2008-07-22 06:51:37 51°13.711 2°55.767 -999 -999 -999 -999 -999
2008-07-22 06:51:42 51°13.709 2°55.763 -999 -999 -999 -999 -999
2008-07-22 06:51:47 51°13.708 2°55.758 -999 -999 -999 -999 -999
2008-07-22 06:51:52 51°13.706 2°55.754 -999 -999 -999 -999 -999
2008-07-22 06:51:56 51°13.704 2°55.751 -999 -999 -999 -999 -999
2008-07-22 06:52:01 51°13.703 2°55.746 -999 -999 -999 -999 -999
2008-07-22 06:52:07 51°13.701 2°55.742 -999 -999 -999 -999 -999
2008-07-22 06:52:12 51°13.7 2°55.739 -999 -999 -999 -999 -999
2008-07-22 06:52:17 51°13.699 2°55.737 -999 -999 -999 -999 -999
2008-07-22 06:52:21 51°13.698 2°55.736 -999 -999 -999 -999 -999
2008-07-22 06:52:26 51°13.698 2°55.735 -999 -999 -999 -999 -999
2008-07-22 06:52:32 51°13.698 2°55.735 -999 -999 -999 -999 -999
2008-07-22 06:52:37 51°13.699 2°55.735 -999 -999 -999 -999 -999
2008-07-22 06:52:41 51°13.7 2°55.735 -999 -999 -999 -999 -999
2008-07-22 06:52:46 51°13.702 2°55.736 -999 -999 -999 -999 -999
2008-07-22 06:52:52 51°13.704 2°55.736 -999 -999 -999 -999 -999
2008-07-22 06:52:57 51°13.707 2°55.737 -999 -999 -999 -999 -999
2008-07-22 06:53:01 51°13.71 2°55.737 -999 -999 -999 -999 -999
2008-07-22 06:53:06 51°13.714 2°55.736 -999 -999 -999 -999 -999
2008-07-22 06:53:11 51°13.718 2°55.734 -999 -999 -999 -999 -999
2008-07-22 06:53:17 51°13.723 2°55.731 -999 -999 -999 -999 -999
2008-07-22 06:53:21 51°13.727 2°55.728 -999 -999 -999 -999 -999
2008-07-22 06:53:26 51°13.733 2°55.724 -999 -999 -999 -999 -999
2008-07-22 06:53:31 51°13.738 2°55.719 -999 -999 -999 -999 -999
2008-07-22 06:53:36 51°13.745 2°55.713 -999 -999 -999 -999 -999
2008-07-22 06:53:41 51°13.752 2°55.707 -999 -999 -999 -999 -999
2008-07-22 06:53:46 51°13.759 2°55.701 -999 -999 -999 -999 -999
2008-07-22 06:53:52 51°13.768 2°55.692 -999 -999 -999 -999 -999
2008-07-22 06:53:57 51°13.777 2°55.685 -999 -999 -999 -999 -999
2008-07-22 06:54:01 51°13.784 2°55.678 -999 -999 -999 -999 -999
2008-07-22 06:54:06 51°13.793 2°55.671 -999 -999 -999 -999 -999
2008-07-22 06:54:12 51°13.804 2°55.661 -999 -999 -999 -999 -999
2008-07-22 06:54:16 51°13.812 2°55.654 -999 -999 -999 -999 -999
2008-07-22 06:54:21 51°13.822 2°55.646 -999 -999 -999 -999 -999
2008-07-22 06:54:26 51°13.832 2°55.638 -999 -999 -999 -999 -999
2008-07-22 06:54:32 51°13.844 2°55.628 -999 -999 -999 -999 -999
2008-07-22 06:54:37 51°13.855 2°55.619 -999 -999 -999 -999 -999
2008-07-22 06:54:41 51°13.863 2°55.611 -999 -999 -999 -999 -999
2008-07-22 06:54:46 51°13.874 2°55.602 -999 -999 -999 -999 -999
2008-07-22 06:54:52 51°13.887 2°55.591 -999 -999 -999 -999 -999
2008-07-22 06:54:57 51°13.898 2°55.581 -999 -999 -999 -999 -999
2008-07-22 06:55:01 51°13.907 2°55.574 -999 -999 -999 -999 -999
2008-07-22 06:55:06 51°13.918 2°55.565 -999 -999 -999 -999 -999
2008-07-22 06:55:11 51°13.929 2°55.556 -999 -999 -999 -999 -999
2008-07-22 06:55:17 51°13.943 2°55.545 -999 -999 -999 -999 -999
2008-07-22 06:55:21 51°13.952 2°55.538 -999 -999 -999 -999 -999
2008-07-22 06:55:26 51°13.964 2°55.529 -999 -999 -999 -999 -999
2008-07-22 06:55:31 51°13.975 2°55.52 -999 -999 -999 -999 -999
2008-07-22 06:55:37 51°13.988 2°55.509 -999 -999 -999 -999 -999
2008-07-22 06:55:41 51°13.997 2°55.501 -999 -999 -999 -999 -999
2008-07-22 06:55:46 51°14.008 2°55.493 -999 -999 -999 -999 -999
2008-07-22 06:55:51 51°14.018 2°55.485 -999 -999 -999 -999 -999
2008-07-22 06:55:56 51°14.028 2°55.477 -999 -999 -999 -999 -999
2008-07-22 06:56:01 51°14.039 2°55.47 -999 -999 -999 -999 -999
2008-07-22 06:56:06 51°14.049 2°55.462 -999 -999 -999 -999 -999
2008-07-22 06:56:11 51°14.06 2°55.454 -999 -999 -999 -999 -999
2008-07-22 06:56:17 51°14.074 2°55.444 -999 -999 -999 -999 -999
2008-07-22 06:56:21 51°14.083 2°55.437 -999 -999 -999 -999 -999
2008-07-22 06:56:26 51°14.095 2°55.429 -999 -999 -999 -999 -999
2008-07-22 06:56:31 51°14.107 2°55.42 -999 -999 -999 -999 -999
2008-07-22 06:56:37 51°14.122 2°55.409 -999 -999 -999 -999 -999
2008-07-22 06:56:41 51°14.131 2°55.402 -999 -999 -999 -999 -999
2008-07-22 06:56:46 51°14.143 2°55.393 -999 -999 -999 -999 -999
2008-07-22 06:56:52 51°14.158 2°55.382 -999 -999 -999 -999 -999
2008-07-22 06:56:57 51°14.17 2°55.371 -999 -999 -999 -999 -999
2008-07-22 06:57:01 51°14.179 2°55.363 -999 -999 -999 -999 -999
2008-07-22 06:57:06 51°14.19 2°55.351 -999 -999 -999 -999 -999
2008-07-22 06:57:12 51°14.203 2°55.335 -999 -999 -999 -999 -999
2008-07-22 06:57:17 51°14.213 2°55.32 -999 -999 -999 -999 -999
2008-07-22 06:57:21 51°14.221 2°55.308 -999 -999 -999 -999 -999
2008-07-22 06:57:26 51°14.231 2°55.293 -999 -999 -999 -999 -999
2008-07-22 06:57:31 51°14.241 2°55.276 -999 -999 -999 -999 -999
2008-07-22 06:57:37 51°14.253 2°55.256 -999 -999 -999 -999 -999
2008-07-22 06:57:41 51°14.261 2°55.242 -999 -999 -999 -999 -999
2008-07-22 06:57:46 51°14.271 2°55.224 -999 -999 -999 -999 -999
2008-07-22 06:57:51 51°14.28 2°55.205 -999 -999 -999 -999 -999
2008-07-22 06:57:57 51°14.292 2°55.183 -999 -999 -999 -999 -999
2008-07-22 06:58:01 51°14.299 2°55.169 -999 -999 -999 -999 -999
2008-07-22 06:58:06 51°14.309 2°55.15 -999 -999 -999 -999 -999
2008-07-22 06:58:11 51°14.318 2°55.131 -999 -999 -999 -999 -999
2008-07-22 06:58:17 51°14.329 2°55.109 -999 -999 -999 -999 -999
2008-07-22 06:58:21 51°14.337 2°55.094 -999 -999 -999 -999 -999
2008-07-22 06:58:26 51°14.346 2°55.074 -999 -999 -999 -999 -999
2008-07-22 06:58:31 51°14.355 2°55.054 -999 -999 -999 -999 -999
2008-07-22 06:58:37 51°14.365 2°55.03 -999 -999 -999 -999 -999
2008-07-22 06:58:41 51°14.373 2°55.014 -999 -999 -999 -999 -999
2008-07-22 06:58:46 51°14.381 2°54.993 -999 -999 -999 -999 -999
2008-07-22 06:58:51 51°14.39 2°54.972 -999 -999 -999 -999 -999
2008-07-22 06:58:57 51°14.4 2°54.947 -999 -999 -999 -999 -999
2008-07-22 06:59:01 51°14.407 2°54.93 -999 -999 -999 -999 -999
2008-07-22 06:59:06 51°14.416 2°54.909 -999 -999 -999 -999 -999
2008-07-22 06:59:11 51°14.424 2°54.888 -999 -999 -999 -999 -999
2008-07-22 06:59:17 51°14.434 2°54.862 -999 -999 -999 -999 -999
2008-07-22 06:59:21 51°14.441 2°54.845 -999 -999 -999 -999 -999
2008-07-22 06:59:26 51°14.449 2°54.824 -999 -999 -999 -999 -999
2008-07-22 06:59:31 51°14.458 2°54.803 -999 -999 -999 -999 -999
2008-07-22 06:59:37 51°14.469 2°54.779 -999 -999 -999 -999 -999
2008-07-22 06:59:41 51°14.477 2°54.762 -999 -999 -999 -999 -999
2008-07-22 06:59:46 51°14.486 2°54.742 -999 -999 -999 -999 -999
2008-07-22 06:59:52 51°14.498 2°54.719 -999 -999 -999 -999 -999
2008-07-22 06:59:57 51°14.509 2°54.7 -999 -999 -999 -999 -999
2008-07-22 07:00:01 51°14.517 2°54.686 -999 -999 -999 -999 -999
2008-07-22 07:00:06 51°14.529 2°54.668 -999 -999 -999 -999 -999
2008-07-22 07:00:11 51°14.54 2°54.651 -999 -999 -999 -999 -999
2008-07-22 07:00:17 51°14.555 2°54.633 -999 -999 -999 -999 -999
2008-07-22 07:00:21 51°14.565 2°54.622 -999 -999 -999 -999 -999
2008-07-22 07:00:26 51°14.578 2°54.609 -999 -999 -999 -999 -999
2008-07-22 07:00:31 51°14.59 2°54.596 -999 -999 -999 -999 -999
2008-07-22 07:00:36 51°14.603 2°54.584 -999 -999 -999 -999 -999
2008-07-22 07:00:41 51°14.617 2°54.572 -999 -999 -999 -999 -999
2008-07-22 07:00:46 51°14.63 2°54.56 -999 -999 -999 -999 -999
2008-07-22 07:00:51 51°14.644 2°54.549 -999 -999 -999 -999 -999
2008-07-22 07:00:56 51°14.657 2°54.537 -999 -999 -999 -999 -999
2008-07-22 07:01:01 51°14.67 2°54.525 -999 -999 -999 -999 -999
2008-07-22 07:01:06 51°14.684 2°54.514 -999 -999 -999 -999 -999
2008-07-22 07:01:11 51°14.697 2°54.502 -999 -999 -999 -999 -999
2008-07-22 07:01:17 51°14.712 2°54.489 -999 -999 -999 -999 -999
2008-07-22 07:01:21 51°14.723 2°54.48 -999 -999 -999 -999 -999
2008-07-22 07:01:26 51°14.736 2°54.47 -999 -999 -999 -999 -999
2008-07-22 07:01:32 51°14.752 2°54.457 -999 -999 -999 -999 -999
2008-07-22 07:01:37 51°14.766 2°54.446 -999 -999 -999 -999 -999
2008-07-22 07:01:41 51°14.776 2°54.438 -999 -999 -999 -999 -999
2008-07-22 07:01:46 51°14.789 2°54.427 -999 -999 -999 -999 -999
2008-07-22 07:01:51 51°14.802 2°54.417 -999 -999 -999 -999 -999
2008-07-22 07:01:57 51°14.818 2°54.404 -999 -999 -999 -999 -999
2008-07-22 07:02:01 51°14.829 2°54.396 -999 -999 -999 -999 -999
2008-07-22 07:02:06 51°14.842 2°54.385 -999 -999 -999 -999 -999
2008-07-22 07:02:11 51°14.855 2°54.374 -999 -999 -999 -999 -999
2008-07-22 07:02:17 51°14.871 2°54.361 -999 -999 -999 -999 -999
2008-07-22 07:02:21 51°14.881 2°54.352 -999 -999 -999 -999 -999
2008-07-22 07:02:26 51°14.894 2°54.341 -999 -999 -999 -999 -999
2008-07-22 07:02:31 51°14.908 2°54.329 -999 -999 -999 -999 -999
2008-07-22 07:02:37 51°14.924 2°54.315 -999 -999 -999 -999 -999
2008-07-22 07:02:41 51°14.934 2°54.306 -999 -999 -999 -999 -999
2008-07-22 07:02:46 51°14.948 2°54.294 -999 -999 -999 -999 -999
2008-07-22 07:02:51 51°14.961 2°54.283 -999 -999 -999 -999 -999
2008-07-22 07:02:57 51°14.978 2°54.269 -999 -999 -999 -999 -999
2008-07-22 07:03:01 51°14.989 2°54.261 -999 -999 -999 -999 -999
2008-07-22 07:03:06 51°15.002 2°54.25 -999 -999 -999 -999 -999
2008-07-22 07:03:11 51°15.016 2°54.24 -999 -999 -999 -999 -999
2008-07-22 07:03:16 51°15.03 2°54.229 -999 -999 -999 -999 -999
2008-07-22 07:03:21 51°15.044 2°54.218 -999 -999 -999 -999 -999
2008-07-22 07:03:26 51°15.058 2°54.207 -999 -999 -999 -999 -999
2008-07-22 07:03:31 51°15.072 2°54.196 -999 -999 -999 -999 -999
2008-07-22 07:03:37 51°15.088 2°54.183 -999 -999 -999 -999 -999
2008-07-22 07:03:41 51°15.099 2°54.174 -999 -999 -999 -999 -999
2008-07-22 07:03:46 51°15.113 2°54.163 -999 -999 -999 -999 -999
2008-07-22 07:03:52 51°15.13 2°54.15 -999 -999 -999 -999 -999
2008-07-22 07:03:57 51°15.144 2°54.14 -999 -999 -999 -999 -999
2008-07-22 07:04:01 51°15.155 2°54.131 -999 -999 -999 -999 -999
2008-07-22 07:04:06 51°15.168 2°54.12 -999 -999 -999 -999 -999
2008-07-22 07:04:11 51°15.182 2°54.109 -999 315 -999 -999 -999
2008-07-22 07:04:16 51°15.196 2°54.098 10.7 315 -999 -999 -999
2008-07-22 07:04:21 51°15.21 2°54.088 10 286 -999 -999 -999
2008-07-22 07:04:25 51°15.221 2°54.079 12 38 -999 -999 -999
2008-07-22 07:04:30 51°15.235 2°54.068 12 284 -999 -999 -999
2008-07-22 07:04:35 51°15.249 2°54.057 11.1 317 16.2 -999 61
2008-07-22 07:04:40 51°15.262 2°54.047 10.1 282 16.2 -999 61
2008-07-22 07:04:45 51°15.275 2°54.036 12.1 316 16.1 -999 70
2008-07-22 07:04:49 51°15.286 2°54.027 12.2 283 16.1 -999 70
2008-07-22 07:04:54 51°15.3 2°54.016 11.5 316 16.1 -999 70
2008-07-22 07:04:59 51°15.314 2°54.005 11.9 278 16.2 102450 71
2008-07-22 07:05:04 51°15.327 2°53.994 11.9 40 16.1 102450 71
2008-07-22 07:05:09 51°15.341 2°53.983 12.5 279 16.1 102450 71
2008-07-22 07:05:13 51°15.352 2°53.975 12.5 316 16.1 102450 71
2008-07-22 07:05:18 51°15.365 2°53.963 11.2 282 16.1 102450 71
2008-07-22 07:05:23 51°15.379 2°53.952 10 317 16.1 102450 71
2008-07-22 07:05:28 51°15.392 2°53.94 11.1 277 16.1 102440 72
2008-07-22 07:05:33 51°15.406 2°53.929 12.9 41 16.1 102440 72
2008-07-22 07:05:37 51°15.417 2°53.919 11 282 16.2 102450 72
2008-07-22 07:05:43 51°15.434 2°53.905 11.6 318 16.2 102450 72
2008-07-22 07:05:48 51°15.447 2°53.893 11.6 284 16.2 102440 73
2008-07-22 07:05:53 51°15.462 2°53.881 11.7 38 16.2 102440 74
2008-07-22 07:05:57 51°15.473 2°53.871 10 279 16.2 102440 74
2008-07-22 07:06:03 51°15.49 2°53.858 10.3 40 16.2 102440 74
2008-07-22 07:06:08 51°15.504 2°53.847 13.1 283 16.2 102440 74
2008-07-22 07:06:13 51°15.518 2°53.837 11.3 32 16.2 102440 74
2008-07-22 07:06:17 51°15.53 2°53.828 12.9 279 16.2 102440 74
2008-07-22 07:06:23 51°15.547 2°53.817 13.1 316 16.2 102440 74
2008-07-22 07:06:28 51°15.561 2°53.806 13.4 280 16.2 102450 74
2008-07-22 07:06:33 51°15.576 2°53.797 10.7 37 16.2 102450 75
2008-07-22 07:06:37 51°15.588 2°53.79 12.8 281 16.2 102450 75
2008-07-22 07:06:43 51°15.606 2°53.779 10.5 40 16.2 102430 75
2008-07-22 07:06:48 51°15.621 2°53.771 10 276 16.2 102430 75
2008-07-22 07:06:53 51°15.636 2°53.761 11.6 37 16.2 102430 75
2008-07-22 07:06:57 51°15.648 2°53.754 12.4 278 16.2 102430 75
2008-07-22 07:07:03 51°15.666 2°53.745 12.9 40 16.2 102430 75
2008-07-22 07:07:08 51°15.681 2°53.736 9.9 278 16.2 102430 75
2008-07-22 07:07:13 51°15.695 2°53.728 9.3 40 16.2 102440 75
2008-07-22 07:07:17 51°15.707 2°53.721 9.7 280 16.2 102440 75
2008-07-22 07:07:23 51°15.725 2°53.712 12.4 38 16.2 102440 75
2008-07-22 07:07:28 51°15.739 2°53.703 9.3 280 16.2 102440 75
2008-07-22 07:07:33 51°15.754 2°53.694 12.8 34 16.2 102450 75
2008-07-22 07:07:37 51°15.766 2°53.687 13.9 278 16.2 102450 75
2008-07-22 07:07:43 51°15.783 2°53.677 13.9 40 16.2 102440 76
2008-07-22 07:07:48 51°15.798 2°53.668 12.8 277 16.2 102440 76
2008-07-22 07:07:53 51°15.813 2°53.659 11.8 37 16.2 102440 76
2008-07-22 07:07:58 51°15.828 2°53.651 12.9 281 16.2 102440 76
2008-07-22 07:08:03 51°15.842 2°53.642 10.7 34 16.2 102430 76
2008-07-22 07:08:08 51°15.857 2°53.633 12.7 286 16.2 102430 76
2008-07-22 07:08:13 51°15.872 2°53.625 12.6 34 16.2 102430 76
2008-07-22 07:08:17 51°15.884 2°53.618 11.2 279 16.2 102440 76
2008-07-22 07:08:23 51°15.902 2°53.608 13.3 38 16.1 102440 76
2008-07-22 07:08:28 51°15.917 2°53.599 12.8 278 16.1 102440 76
2008-07-22 07:08:33 51°15.931 2°53.59 14.4 38 16.2 102440 77
2008-07-22 07:08:38 51°15.946 2°53.581 9.9 282 16.2 102440 77
2008-07-22 07:08:43 51°15.96 2°53.571 11.5 39 16.2 102440 77
2008-07-22 07:08:48 51°15.974 2°53.562 11.2 280 16.1 102440 76
2008-07-22 07:08:53 51°15.989 2°53.552 10.6 316 16.2 102440 77
2008-07-22 07:08:58 51°16.003 2°53.542 13.2 282 16.2 102440 77
2008-07-22 07:09:03 51°16.017 2°53.533 10.2 35 16.2 102450 77
2008-07-22 07:09:08 51°16.032 2°53.523 10.5 279 16.2 102450 77
2008-07-22 07:09:13 51°16.046 2°53.514 12.9 34 16.1 102430 77
2008-07-22 07:09:18 51°16.061 2°53.505 10.4 282 16.1 102430 77
2008-07-22 07:09:23 51°16.076 2°53.495 12.4 34 16.1 102430 77
2008-07-22 07:09:28 51°16.09 2°53.486 9.8 279 16.1 102440 77
2008-07-22 07:09:33 51°16.105 2°53.477 10.3 315 16.1 102440 77
2008-07-22 07:09:37 51°16.117 2°53.469 13.2 278 16.1 102440 77
2008-07-22 07:09:43 51°16.135 2°53.459 11 38 16.1 102440 77
2008-07-22 07:09:48 51°16.149 2°53.45 11.1 281 16.1 102440 77
2008-07-22 07:09:53 51°16.164 2°53.441 11.4 316 16.1 102440 77
2008-07-22 07:09:58 51°16.179 2°53.432 10.4 282 16.1 102440 77
2008-07-22 07:10:03 51°16.194 2°53.423 12 36 16.1 102440 77
2008-07-22 07:10:08 51°16.209 2°53.414 13.6 285 16.1 102440 77
2008-07-22 07:10:13 51°16.223 2°53.405 13.6 35 16.1 102440 77
2008-07-22 07:10:18 51°16.238 2°53.395 11.7 277 16.2 102430 77
2008-07-22 07:10:23 51°16.252 2°53.385 13.4 37 16.2 102440 78
2008-07-22 07:10:28 51°16.267 2°53.376 11.6 277 16.2 102440 78
2008-07-22 07:10:33 51°16.281 2°53.367 10.9 40 16.2 102440 77
2008-07-22 07:10:38 51°16.296 2°53.357 11.6 282 16.2 102440 77
2008-07-22 07:10:43 51°16.31 2°53.348 13.8 33 16.2 102440 77
2008-07-22 07:10:48 51°16.325 2°53.339 10.1 283 16.1 102430 77
2008-07-22 07:10:53 51°16.34 2°53.33 9.7 37 16.1 102430 77
2008-07-22 07:10:57 51°16.352 2°53.323 10.8 280 16.1 102430 77
2008-07-22 07:11:03 51°16.37 2°53.312 10.6 33 16.1 102420 77
2008-07-22 07:11:08 51°16.386 2°53.304 12.6 282 16.1 102420 77
2008-07-22 07:11:13 51°16.401 2°53.295 10.6 316 16.1 102430 77
2008-07-22 07:11:18 51°16.416 2°53.286 13.2 282 16.1 102430 77
2008-07-22 07:11:23 51°16.431 2°53.277 12.5 317 16.1 102430 77
2008-07-22 07:11:28 51°16.446 2°53.267 10.3 281 16.1 102440 77
2008-07-22 07:11:33 51°16.462 2°53.258 13 316 16.1 102440 77
2008-07-22 07:11:38 51°16.477 2°53.247 10.9 277 16.1 102440 77
2008-07-22 07:11:43 51°16.492 2°53.238 12.8 38 16.1 102430 77
2008-07-22 07:11:48 51°16.508 2°53.228 12.4 284 16.1 102430 77
2008-07-22 07:11:53 51°16.523 2°53.219 13.5 34 16.1 102440 77
2008-07-22 07:11:58 51°16.539 2°53.209 12.9 281 16.1 102440 77
2008-07-22 07:12:03 51°16.554 2°53.199 11.2 37 16.1 102430 77
2008-07-22 07:12:08 51°16.569 2°53.19 10.8 282 16.1 102430 77
2008-07-22 07:12:13 51°16.585 2°53.18 12.3 318 16.1 102430 77
2008-07-22 07:12:17 51°16.597 2°53.172 10.2 285 16.1 102440 77
2008-07-22 07:12:23 51°16.616 2°53.16 10.5 38 16.1 102440 77
2008-07-22 07:12:28 51°16.631 2°53.151 12.6 285 16.1 102440 77
2008-07-22 07:12:33 51°16.647 2°53.141 12 316 16.2 102430 77
2008-07-22 07:12:38 51°16.663 2°53.132 13.1 285 16.2 102430 77
2008-07-22 07:12:43 51°16.678 2°53.123 13 34 16.2 102440 77
2008-07-22 07:12:48 51°16.694 2°53.115 11.3 277 16.2 102440 77
2008-07-22 07:12:53 51°16.71 2°53.106 11 40 16.2 102440 78
2008-07-22 07:12:58 51°16.725 2°53.097 11.1 283 16.2 102440 78
2008-07-22 07:13:03 51°16.741 2°53.088 12.4 36 16.2 102440 78
2008-07-22 07:13:08 51°16.756 2°53.079 10.6 280 16.2 102440 77
2008-07-22 07:13:13 51°16.772 2°53.069 13.8 38 16.2 102430 77
2008-07-22 07:13:18 51°16.787 2°53.06 10.8 277 16.2 102430 77
2008-07-22 07:13:23 51°16.803 2°53.05 12.5 40 16.2 102430 77
2008-07-22 07:13:28 51°16.818 2°53.041 13.8 281 16.2 102440 77
2008-07-22 07:13:33 51°16.833 2°53.031 13.8 35 16.2 102440 77
2008-07-22 07:13:37 51°16.845 2°53.024 9.8 278 16.2 102440 77
2008-07-22 07:13:43 51°16.864 2°53.013 10.6 315 16.2 102440 77
2008-07-22 07:13:48 51°16.879 2°53.005 13.3 280 16.2 102430 77
2008-07-22 07:13:53 51°16.894 2°52.995 13 35 16.2 102430 77
2008-07-22 07:13:57 51°16.906 2°52.989 12.5 281 16.2 102430 77
2008-07-22 07:14:03 51°16.924 2°52.977 12.4 315 16.2 102440 78
2008-07-22 07:14:08 51°16.94 2°52.968 12.7 284 16.2 102440 78
2008-07-22 07:14:13 51°16.955 2°52.959 13.1 32 16.2 102430 78
2008-07-22 07:14:18 51°16.97 2°52.95 10.1 280 16.2 102430 78
2008-07-22 07:14:23 51°16.986 2°52.941 9.5 34 16.2 102440 78
2008-07-22 07:14:28 51°17.001 2°52.932 12.3 279 16.2 102440 78
2008-07-22 07:14:33 51°17.016 2°52.922 10.8 319 16.2 102440 78
2008-07-22 07:14:38 51°17.032 2°52.913 12.8 286 16.2 102440 78
2008-07-22 07:14:43 51°17.048 2°52.903 11.2 316 16.2 102440 78
2008-07-22 07:14:48 51°17.063 2°52.894 10.8 277 16.2 102440 78
2008-07-22 07:14:53 51°17.079 2°52.885 13.1 36 16.2 102440 78
2008-07-22 07:14:58 51°17.094 2°52.875 13.2 282 16.2 102440 78
2008-07-22 07:15:03 51°17.11 2°52.866 11.1 38 16.2 102440 78
2008-07-22 07:15:08 51°17.126 2°52.857 12.5 284 16.2 102440 79
2008-07-22 07:15:13 51°17.141 2°52.848 10.5 315 16.2 102440 79
2008-07-22 07:15:17 51°17.154 2°52.841 11.6 278 16.2 102430 79
2008-07-22 07:15:23 51°17.172 2°52.83 11.8 38 16.2 102430 79
2008-07-22 07:15:28 51°17.187 2°52.821 12.8 284 16.2 102430 78
2008-07-22 07:15:33 51°17.203 2°52.812 13.1 37 16.2 102440 78
2008-07-22 07:15:37 51°17.215 2°52.805 12.5 281 16.2 102440 78
2008-07-22 07:15:43 51°17.234 2°52.795 10.4 39 16.2 102430 78
2008-07-22 07:15:48 51°17.249 2°52.785 12.7 283 16.2 102430 78
2008-07-22 07:15:53 51°17.265 2°52.776 12.3 37 16.2 102440 77
2008-07-22 07:15:57 51°17.277 2°52.769 12.8 279 16.2 102440 77
2008-07-22 07:16:03 51°17.296 2°52.76 12.4 39 16.2 102440 77
2008-07-22 07:16:08 51°17.312 2°52.752 12.4 283 16.2 102440 77
2008-07-22 07:16:13 51°17.328 2°52.744 9.9 38 16.2 102430 77
2008-07-22 07:16:17 51°17.34 2°52.738 12.6 276 16.2 102430 77
2008-07-22 07:16:23 51°17.359 2°52.729 11 40 16.1 102430 77
2008-07-22 07:16:28 51°17.375 2°52.721 12.3 282 16.1 102430 77
2008-07-22 07:16:33 51°17.391 2°52.714 11.9 33 16.2 102430 78
2008-07-22 07:16:37 51°17.404 2°52.708 12.5 280 16.2 102430 78
2008-07-22 07:16:43 51°17.423 2°52.698 12.4 38 16.2 102430 78
2008-07-22 07:16:48 51°17.439 2°52.691 10.4 282 16.2 102430 78
2008-07-22 07:16:53 51°17.455 2°52.683 12.4 39 16.2 102440 78
2008-07-22 07:16:57 51°17.468 2°52.676 13.8 279 16.2 102440 78
2008-07-22 07:17:03 51°17.486 2°52.667 12.7 36 16.2 102440 78
2008-07-22 07:17:08 51°17.502 2°52.659 13 282 16.2 102440 78
2008-07-22 07:17:13 51°17.518 2°52.651 9.9 38 16.2 102430 78
2008-07-22 07:17:17 51°17.531 2°52.645 10.9 279 16.2 102430 78
2008-07-22 07:17:23 51°17.549 2°52.635 12.9 40 16.2 102430 78
2008-07-22 07:17:28 51°17.565 2°52.627 12 281 16.2 102430 78
2008-07-22 07:17:33 51°17.581 2°52.619 11.6 35 16.2 102430 78
2008-07-22 07:17:37 51°17.594 2°52.612 10.8 278 16.2 102430 78
2008-07-22 07:17:43 51°17.613 2°52.602 12 37 16.2 102430 78
2008-07-22 07:17:48 51°17.628 2°52.594 10.2 277 16.2 102430 79
2008-07-22 07:17:53 51°17.644 2°52.586 10.8 41 16.2 102440 79
2008-07-22 07:17:57 51°17.656 2°52.579 10.3 279 16.2 102440 79
2008-07-22 07:18:03 51°17.675 2°52.57 12.6 36 16.2 102430 79
2008-07-22 07:18:08 51°17.691 2°52.561 9.9 283 16.2 102430 79
2008-07-22 07:18:13 51°17.707 2°52.554 9.7 33 16.2 102440 79
2008-07-22 07:18:18 51°17.723 2°52.545 11.5 282 16.2 102440 79
2008-07-22 07:18:23 51°17.738 2°52.537 12.8 33 16.2 102440 79
2008-07-22 07:18:28 51°17.754 2°52.528 10.1 277 16.2 102430 79
2008-07-22 07:18:33 51°17.77 2°52.519 10.9 39 16.2 102440 79
2008-07-22 07:18:37 51°17.782 2°52.511 11.4 284 16.2 102440 79
2008-07-22 07:18:43 51°17.801 2°52.5 10.1 315 16.2 102440 79
2008-07-22 07:18:48 51°17.816 2°52.49 11.4 282 16.2 102440 79
2008-07-22 07:18:53 51°17.832 2°52.48 11.2 37 16.2 102440 79
2008-07-22 07:18:58 51°17.847 2°52.471 13.2 278 16.2 102440 79
2008-07-22 07:19:03 51°17.862 2°52.461 11 37 16.3 102450 79
2008-07-22 07:19:08 51°17.878 2°52.452 13.5 279 16.3 102450 79
2008-07-22 07:19:13 51°17.893 2°52.443 11.1 38 16.2 102430 79
2008-07-22 07:19:18 51°17.909 2°52.433 13.1 285 16.2 102430 79
2008-07-22 07:19:23 51°17.925 2°52.424 13.2 32 16.2 102440 79
2008-07-22 07:19:28 51°17.94 2°52.414 9.9 281 16.2 102440 79
2008-07-22 07:19:33 51°17.956 2°52.405 11 40 16.1 102430 78
2008-07-22 07:19:38 51°17.971 2°52.395 13.9 281 16.1 102430 78
2008-07-22 07:19:43 51°17.986 2°52.386 11.7 38 16.1 102430 78
2008-07-22 07:19:48 51°18.002 2°52.376 12.3 280 16.1 102430 78
2008-07-22 07:19:53 51°18.018 2°52.368 13.5 36 16.1 102430 78
2008-07-22 07:19:57 51°18.03 2°52.36 11.3 277 16.1 102440 79
2008-07-22 07:20:03 51°18.049 2°52.35 10.4 315 16.1 102430 78
2008-07-22 07:20:08 51°18.064 2°52.34 11.4 286 16.1 102430 78
2008-07-22 07:20:13 51°18.08 2°52.332 13.8 36 16.1 102440 79
2008-07-22 07:20:17 51°18.093 2°52.325 13.3 279 16.1 102440 79
2008-07-22 07:20:23 51°18.112 2°52.315 13.1 39 16.1 102430 79
2008-07-22 07:20:28 51°18.127 2°52.308 13.6 282 16.1 102430 79
2008-07-22 07:20:33 51°18.143 2°52.299 14.6 35 16.2 102440 79
2008-07-22 07:20:37 51°18.156 2°52.293 12.9 282 16.2 102440 79
2008-07-22 07:20:43 51°18.175 2°52.284 11.8 32 16.1 102430 79
2008-07-22 07:20:48 51°18.191 2°52.276 12.5 277 16.1 102430 79
2008-07-22 07:20:53 51°18.207 2°52.268 12.7 38 16.2 102420 79
2008-07-22 07:20:57 51°18.219 2°52.262 11.4 280 16.2 102420 79
2008-07-22 07:21:03 51°18.238 2°52.252 11.5 33 16.2 102430 79
2008-07-22 07:21:08 51°18.254 2°52.244 11.2 283 16.2 102430 79
2008-07-22 07:21:13 51°18.27 2°52.236 11.3 35 16.2 102430 78
2008-07-22 07:21:17 51°18.283 2°52.23 11 280 16.2 102430 78
2008-07-22 07:21:23 51°18.302 2°52.22 13.2 38 16.2 102430 79
2008-07-22 07:21:28 51°18.318 2°52.212 13 282 16.2 102430 79
2008-07-22 07:21:33 51°18.334 2°52.203 13.4 35 16.2 102430 79
2008-07-22 07:21:37 51°18.346 2°52.196 13.6 280 16.2 102430 79
2008-07-22 07:21:43 51°18.365 2°52.186 10.9 36 16.2 102430 79
2008-07-22 07:21:48 51°18.381 2°52.177 13.3 283 16.2 102430 79
2008-07-22 07:21:53 51°18.397 2°52.168 10.8 315 16.2 102430 79
2008-07-22 07:21:57 51°18.41 2°52.161 12.6 282 16.2 102430 79
2008-07-22 07:22:03 51°18.429 2°52.151 13.8 34 16.2 102430 79
2008-07-22 07:22:08 51°18.444 2°52.142 10.3 276 16.2 102430 79
2008-07-22 07:22:13 51°18.46 2°52.134 10.4 41 16.2 102440 79
2008-07-22 07:22:17 51°18.473 2°52.127 10.8 280 16.2 102440 79
2008-07-22 07:22:23 51°18.492 2°52.117 10.4 35 16.2 102440 79
2008-07-22 07:22:28 51°18.508 2°52.108 13.2 282 16.2 102440 79
2008-07-22 07:22:33 51°18.523 2°52.1 12.9 40 16.2 102440 79
2008-07-22 07:22:38 51°18.539 2°52.091 11.1 277 16.2 102440 79
2008-07-22 07:22:43 51°18.555 2°52.084 11.6 38 16.2 102440 79
2008-07-22 07:22:48 51°18.571 2°52.077 13 277 16.2 102440 79
2008-07-22 07:22:53 51°18.587 2°52.071 12.8 34 16.2 102440 79
2008-07-22 07:22:57 51°18.6 2°52.066 12.7 280 16.2 102440 79
2008-07-22 07:23:03 51°18.62 2°52.059 11.1 37 16.2 102430 79
2008-07-22 07:23:08 51°18.636 2°52.055 13.9 283 16.2 102430 79
2008-07-22 07:23:13 51°18.653 2°52.05 10.9 38 16.2 102440 79
2008-07-22 07:23:18 51°18.669 2°52.046 13.2 282 16.2 102440 79
2008-07-22 07:23:23 51°18.685 2°52.042 13.2 35 16.2 102440 79
2008-07-22 07:23:28 51°18.702 2°52.038 12.9 278 16.2 102440 79
2008-07-22 07:23:33 51°18.718 2°52.034 10.2 38 16.2 102440 79
2008-07-22 07:23:38 51°18.734 2°52.029 12.9 284 16.2 102430 79
2008-07-22 07:23:43 51°18.751 2°52.025 12.8 36 16.2 102430 79
2008-07-22 07:23:48 51°18.767 2°52.02 11.1 277 16.2 102430 79
2008-07-22 07:23:53 51°18.784 2°52.016 12.8 230 16.2 102430 79
2008-07-22 07:23:58 51°18.8 2°52.011 13.1 285 16.2 102430 79
2008-07-22 07:24:03 51°18.817 2°52.006 13.4 31 16.2 102430 79
2008-07-22 07:24:08 51°18.833 2°52.002 11.2 278 16.2 102430 79
2008-07-22 07:24:13 51°18.85 2°51.997 11 39 16.2 102430 79
2008-07-22 07:24:17 51°18.863 2°51.994 14.2 283 16.2 102430 79
2008-07-22 07:24:23 51°18.883 2°51.989 13.4 39 16.2 102430 79
2008-07-22 07:24:28 51°18.899 2°51.984 11.2 285 16.2 102430 79
2008-07-22 07:24:33 51°18.915 2°51.98 12.8 35 16.2 102430 79
2008-07-22 07:24:37 51°18.929 2°51.975 10.1 280 16.2 102430 79
2008-07-22 07:24:43 51°18.948 2°51.97 12.7 34 16.2 102420 79
2008-07-22 07:24:48 51°18.964 2°51.965 10.6 282 16.2 102420 79
2008-07-22 07:24:53 51°18.98 2°51.96 13 34 16.2 102430 79
2008-07-22 07:24:57 51°18.993 2°51.955 12.7 281 16.2 102430 79
2008-07-22 07:25:03 51°19.013 2°51.95 13.5 33 16.2 102430 79
2008-07-22 07:25:08 51°19.029 2°51.945 11.1 283 16.2 102430 79
2008-07-22 07:25:13 51°19.045 2°51.941 10.8 36 16.2 102420 79
2008-07-22 07:25:17 51°19.058 2°51.936 10 278 16.2 102420 79
2008-07-22 07:25:23 51°19.077 2°51.93 10.4 35 16.2 102440 79
2008-07-22 07:25:28 51°19.093 2°51.924 10.2 280 16.2 102440 79
2008-07-22 07:25:33 51°19.109 2°51.919 12.3 36 16.2 102440 79
2008-07-22 07:25:38 51°19.125 2°51.912 12.5 279 16.1 102420 79
2008-07-22 07:25:43 51°19.14 2°51.908 10.5 231 16.1 102420 79
2008-07-22 07:25:48 51°19.156 2°51.902 9.4 280 16.2 102430 79
2008-07-22 07:25:53 51°19.172 2°51.897 12.2 33 16.2 102430 78
2008-07-22 07:25:57 51°19.185 2°51.893 12.4 278 16.2 102430 78
2008-07-22 07:26:03 51°19.204 2°51.888 12.3 230 16.2 102430 79
2008-07-22 07:26:08 51°19.22 2°51.883 12.6 281 16.2 102430 79
2008-07-22 07:26:13 51°19.236 2°51.878 12.8 32 16.1 102440 79
2008-07-22 07:26:18 51°19.252 2°51.873 12.1 286 16.1 102440 79
2008-07-22 07:26:23 51°19.268 2°51.867 9.7 39 16.2 102430 79
2008-07-22 07:26:28 51°19.284 2°51.862 10.9 282 16.2 102430 79
2008-07-22 07:26:33 51°19.299 2°51.857 10.3 36 16.1 102430 79
2008-07-22 07:26:38 51°19.315 2°51.851 10.3 280 16.1 102430 79
2008-07-22 07:26:43 51°19.331 2°51.846 10.9 38 16.1 102430 79
2008-07-22 07:26:48 51°19.347 2°51.84 10.1 276 16.2 102440 79
2008-07-22 07:26:53 51°19.362 2°51.835 12.6 39 16.2 102430 79
2008-07-22 07:26:58 51°19.378 2°51.829 10.6 280 16.2 102430 79
2008-07-22 07:27:03 51°19.393 2°51.824 10.4 36 16.2 102430 79
2008-07-22 07:27:08 51°19.409 2°51.819 13.1 282 16.2 102440 79
2008-07-22 07:27:13 51°19.425 2°51.813 12.7 34 16.2 102440 79
2008-07-22 07:27:17 51°19.438 2°51.809 11.8 280 16.2 102440 79
2008-07-22 07:27:23 51°19.457 2°51.803 9.5 40 16.2 102430 79
2008-07-22 07:27:28 51°19.473 2°51.798 10.5 280 16.2 102430 79
2008-07-22 07:27:33 51°19.489 2°51.793 12.9 38 16.2 102450 79
2008-07-22 07:27:38 51°19.505 2°51.789 10.6 280 16.2 102450 79
2008-07-22 07:27:43 51°19.521 2°51.785 11.1 33 16.2 102450 79
2008-07-22 07:27:48 51°19.537 2°51.781 10.2 282 16.2 102450 79
2008-07-22 07:27:53 51°19.553 2°51.777 13 21 16.2 102430 79
2008-07-22 07:27:58 51°19.568 2°51.773 12.5 281 16.2 102430 79
2008-07-22 07:28:03 51°19.584 2°51.769 12.8 33 16.2 102450 79
2008-07-22 07:28:08 51°19.6 2°51.765 10.9 279 16.2 102450 79
2008-07-22 07:28:13 51°19.616 2°51.761 11 37 16.2 102450 79
2008-07-22 07:28:18 51°19.632 2°51.756 13.8 278 16.2 102450 79
2008-07-22 07:28:23 51°19.648 2°51.751 13.2 35 16.2 102430 79
2008-07-22 07:28:28 51°19.664 2°51.747 10.1 277 16.2 102430 79
2008-07-22 07:28:33 51°19.68 2°51.743 12.8 36 16.2 102430 79
2008-07-22 07:28:38 51°19.695 2°51.739 12.3 279 16.2 102430 79
2008-07-22 07:28:43 51°19.712 2°51.735 10.2 231 16.2 102440 78
2008-07-22 07:28:48 51°19.728 2°51.731 13.8 282 16.2 102440 78
2008-07-22 07:28:53 51°19.743 2°51.727 11.4 37 16.2 102440 78
2008-07-22 07:28:58 51°19.759 2°51.723 13 279 16.2 102440 78
2008-07-22 07:29:03 51°19.776 2°51.718 10.3 233 16.2 102440 79
2008-07-22 07:29:08 51°19.792 2°51.714 10.7 280 16.2 102440 79
2008-07-22 07:29:13 51°19.808 2°51.709 10.1 232 16.2 102450 79
2008-07-22 07:29:17 51°19.82 2°51.705 10.2 281 16.2 102450 79
2008-07-22 07:29:23 51°19.84 2°51.7 12.3 37 16.2 102430 79
2008-07-22 07:29:28 51°19.855 2°51.695 12.9 280 16.2 102430 79
2008-07-22 07:29:33 51°19.871 2°51.692 10.4 38 16.2 102430 79
2008-07-22 07:29:38 51°19.887 2°51.687 10.4 279 16.2 102430 79
2008-07-22 07:29:43 51°19.903 2°51.684 10.8 38 16.2 102430 79
2008-07-22 07:29:48 51°19.919 2°51.68 10.6 276 16.2 102440 79
2008-07-22 07:29:53 51°19.935 2°51.676 10.2 27 16.2 102420 79
2008-07-22 07:29:58 51°19.951 2°51.672 10.6 278 16.2 102420 79
2008-07-22 07:30:03 51°19.967 2°51.669 10.8 39 16.2 102430 79
2008-07-22 07:30:08 51°19.983 2°51.666 13.5 284 16.2 102430 79
2008-07-22 07:30:13 51°19.999 2°51.662 11 37 16.2 102420 79
2008-07-22 07:30:18 51°20.015 2°51.659 12.8 276 16.2 102420 79
2008-07-22 07:30:23 51°20.031 2°51.655 10.5 34 16.2 102420 79
2008-07-22 07:30:28 51°20.047 2°51.651 10.9 276 16.2 102420 79
2008-07-22 07:30:33 51°20.063 2°51.649 13 232 16.2 102420 79
2008-07-22 07:30:37 51°20.076 2°51.646 9.5 285 16.2 102420 79
2008-07-22 07:30:43 51°20.096 2°51.643 13.5 34 16.2 102440 79
2008-07-22 07:30:48 51°20.112 2°51.639 10.2 279 16.2 102440 79
2008-07-22 07:30:53 51°20.128 2°51.636 9.5 34 16.2 102420 79
2008-07-22 07:30:58 51°20.144 2°51.633 10.4 280 16.2 102420 79
2008-07-22 07:31:03 51°20.16 2°51.63 11 35 16.2 102430 79
2008-07-22 07:31:08 51°20.176 2°51.626 12.7 279 16.2 102430 79
2008-07-22 07:31:13 51°20.193 2°51.623 10.6 34 16.2 102440 79
2008-07-22 07:31:18 51°20.209 2°51.619 13.1 280 16.2 102440 79
2008-07-22 07:31:23 51°20.225 2°51.616 11 33 16.3 102430 79
2008-07-22 07:31:28 51°20.241 2°51.612 13.7 281 16.3 102430 79
2008-07-22 07:31:33 51°20.257 2°51.609 11.1 38 16.2 102430 80
2008-07-22 07:31:38 51°20.274 2°51.606 10.7 286 16.2 102430 80
2008-07-22 07:31:43 51°20.29 2°51.603 14.3 235 16.2 102430 80
2008-07-22 07:31:48 51°20.306 2°51.6 13.6 281 16.2 102430 79
2008-07-22 07:31:53 51°20.322 2°51.597 10.7 36 16.2 102420 79
2008-07-22 07:31:57 51°20.335 2°51.594 13.4 282 16.2 102420 79
2008-07-22 07:32:03 51°20.355 2°51.591 13.7 36 16.2 102430 79
2008-07-22 07:32:08 51°20.371 2°51.588 11.3 278 16.2 102430 79
2008-07-22 07:32:13 51°20.387 2°51.584 10.7 232 16.2 102420 79
2008-07-22 07:32:18 51°20.403 2°51.581 12.7 279 16.2 102420 79
2008-07-22 07:32:23 51°20.419 2°51.578 10.7 233 16.2 102420 79
2008-07-22 07:32:28 51°20.436 2°51.574 13.2 285 16.2 102420 79
2008-07-22 07:32:33 51°20.452 2°51.571 12.7 31 16.2 102420 79
2008-07-22 07:32:38 51°20.468 2°51.569 13.1 280 16.2 102440 79
2008-07-22 07:32:43 51°20.485 2°51.566 13.3 234 16.2 102430 79
2008-07-22 07:32:48 51°20.501 2°51.563 12.6 282 16.2 102430 79
2008-07-22 07:32:53 51°20.518 2°51.561 12.9 35 16.2 102420 79
2008-07-22 07:32:58 51°20.534 2°51.557 10.5 282 16.2 102420 79
2008-07-22 07:33:03 51°20.551 2°51.555 13.2 235 16.2 102430 79
2008-07-22 07:33:08 51°20.567 2°51.552 11.6 285 16.2 102430 79
2008-07-22 07:33:13 51°20.584 2°51.55 13.4 36 16.2 102430 79
2008-07-22 07:33:18 51°20.6 2°51.547 12.8 283 16.2 102430 79
2008-07-22 07:33:23 51°20.617 2°51.545 13.6 232 16.2 102430 80
2008-07-22 07:33:28 51°20.633 2°51.542 10.1 282 16.2 102430 80
2008-07-22 07:33:33 51°20.649 2°51.539 13.2 37 16.2 102410 80
2008-07-22 07:33:38 51°20.666 2°51.535 12.4 286 16.2 102410 80
2008-07-22 07:33:43 51°20.682 2°51.532 13.1 32 16.2 102410 80
2008-07-22 07:33:48 51°20.698 2°51.528 11.4 278 16.3 102440 80
2008-07-22 07:33:53 51°20.714 2°51.525 13.1 34 16.3 102430 79
2008-07-22 07:33:57 51°20.728 2°51.523 11.4 278 16.3 102430 79
2008-07-22 07:34:03 51°20.747 2°51.52 13.3 35 16.2 102430 80
2008-07-22 07:34:08 51°20.763 2°51.517 10.5 280 16.2 102430 80
2008-07-22 07:34:13 51°20.78 2°51.515 13.1 38 16.2 102420 79
2008-07-22 07:34:18 51°20.796 2°51.513 13.5 282 16.2 102420 79
2008-07-22 07:34:23 51°20.813 2°51.51 12.1 34 16.2 102430 79
2008-07-22 07:34:28 51°20.828 2°51.508 9.8 280 16.2 102430 79
2008-07-22 07:34:33 51°20.844 2°51.506 12.2 37 16.2 102420 79
2008-07-22 07:34:38 51°20.861 2°51.503 12.5 280 16.2 102420 79
2008-07-22 07:34:43 51°20.877 2°51.501 10.1 234 16.2 102430 79
2008-07-22 07:34:48 51°20.893 2°51.499 12.9 281 16.2 102430 79
2008-07-22 07:34:53 51°20.909 2°51.497 10.2 38 16.2 102420 79
2008-07-22 07:34:58 51°20.925 2°51.493 13.2 281 16.2 102420 79
2008-07-22 07:35:03 51°20.941 2°51.491 12.9 33 16.2 102430 79
2008-07-22 07:35:08 51°20.958 2°51.488 10.8 279 16.2 102430 79
2008-07-22 07:35:13 51°20.974 2°51.486 13.3 35 16.2 102420 79
2008-07-22 07:35:17 51°20.987 2°51.483 10.5 282 16.2 102420 79
2008-07-22 07:35:23 51°21.006 2°51.48 11 38 16.2 102420 79
2008-07-22 07:35:28 51°21.023 2°51.477 11.7 277 16.2 102420 79
2008-07-22 07:35:33 51°21.039 2°51.474 10.6 36 16.2 102420 79
2008-07-22 07:35:38 51°21.055 2°51.471 11.5 277 16.2 102420 79
2008-07-22 07:35:43 51°21.072 2°51.468 11 36 16.2 102420 79
2008-07-22 07:35:48 51°21.088 2°51.464 12.5 278 16.2 102420 79
2008-07-22 07:35:53 51°21.105 2°51.461 10.3 38 16.2 102420 79
2008-07-22 07:35:58 51°21.121 2°51.458 10.8 280 16.2 102420 79
2008-07-22 07:36:03 51°21.137 2°51.455 11.8 38 16.3 102420 80
2008-07-22 07:36:08 51°21.154 2°51.452 13.1 285 16.3 102420 80
2008-07-22 07:36:13 51°21.17 2°51.449 10.2 37 16.3 102430 80
2008-07-22 07:36:18 51°21.186 2°51.447 9.9 276 16.3 102430 80
2008-07-22 07:36:23 51°21.203 2°51.445 12.3 34 16.3 102430 80
2008-07-22 07:36:28 51°21.219 2°51.443 10.7 277 16.3 102420 79
2008-07-22 07:36:33 51°21.235 2°51.442 11.5 232 16.2 102430 79
2008-07-22 07:36:37 51°21.249 2°51.44 11.9 284 16.2 102430 79
2008-07-22 07:36:43 51°21.268 2°51.438 14.4 36 16.3 102430 80
2008-07-22 07:36:48 51°21.285 2°51.436 13.8 281 16.3 102430 80
2008-07-22 07:36:53 51°21.301 2°51.435 13.7 33 16.3 102420 80
2008-07-22 07:36:58 51°21.317 2°51.433 13.4 281 16.3 102420 80
2008-07-22 07:37:03 51°21.333 2°51.431 13.2 35 16.3 102420 80
2008-07-22 07:37:08 51°21.349 2°51.429 10.8 278 16.3 102420 80
2008-07-22 07:37:13 51°21.365 2°51.428 12.7 37 16.2 102420 80
2008-07-22 07:37:18 51°21.381 2°51.426 12.6 285 16.2 102420 80
2008-07-22 07:37:23 51°21.398 2°51.424 10.3 233 16.3 102420 79
2008-07-22 07:37:28 51°21.414 2°51.423 11.9 277 16.3 102420 79
2008-07-22 07:37:33 51°21.43 2°51.42 13 38 16.3 102420 80
2008-07-22 07:37:38 51°21.446 2°51.418 10.5 281 16.3 102420 80
2008-07-22 07:37:43 51°21.462 2°51.415 10.1 234 16.3 102420 80
2008-07-22 07:37:48 51°21.478 2°51.413 10.7 279 16.3 102420 80
2008-07-22 07:37:53 51°21.494 2°51.411 10.4 34 16.3 102420 80
2008-07-22 07:37:57 51°21.507 2°51.41 10 279 16.3 102430 80
2008-07-22 07:38:03 51°21.527 2°51.408 13.1 35 16.3 102420 80
2008-07-22 07:38:08 51°21.543 2°51.406 13.2 284 16.3 102420 80
2008-07-22 07:38:13 51°21.56 2°51.404 10.7 233 16.3 102420 80
2008-07-22 07:38:18 51°21.576 2°51.403 10 278 16.3 102420 80
2008-07-22 07:38:23 51°21.593 2°51.401 13.5 236 16.3 102420 80
2008-07-22 07:38:28 51°21.609 2°51.4 10.1 278 16.3 102430 80
2008-07-22 07:38:33 51°21.625 2°51.398 11.8 33 16.3 102420 80
2008-07-22 07:38:38 51°21.642 2°51.397 11.4 282 16.3 102420 80
2008-07-22 07:38:43 51°21.658 2°51.395 12.8 34 16.3 102430 80
2008-07-22 07:38:48 51°21.675 2°51.393 10.9 283 16.3 102430 80
2008-07-22 07:38:53 51°21.692 2°51.392 12 34 16.3 102420 80
2008-07-22 07:38:58 51°21.708 2°51.39 9.9 278 16.3 102420 80
2008-07-22 07:39:03 51°21.724 2°51.388 13 37 16.3 102420 80
2008-07-22 07:39:08 51°21.741 2°51.386 9.8 282 16.3 102420 80
2008-07-22 07:39:13 51°21.757 2°51.384 10.2 37 16.3 102440 80
2008-07-22 07:39:17 51°21.77 2°51.382 12.9 283 16.3 102440 80
2008-07-22 07:39:23 51°21.789 2°51.379 11 37 16.4 102420 81
2008-07-22 07:39:28 51°21.805 2°51.377 10.8 276 16.4 102420 81
2008-07-22 07:39:33 51°21.822 2°51.376 10.5 40 16.4 102450 80
2008-07-22 07:39:38 51°21.838 2°51.374 12 280 16.4 102450 80
2008-07-22 07:39:43 51°21.854 2°51.372 13.4 33 16.3 102420 80
2008-07-22 07:39:48 51°21.871 2°51.369 10.4 282 16.3 102420 80
2008-07-22 07:39:53 51°21.887 2°51.366 13.3 35 16.3 102420 80
2008-07-22 07:39:58 51°21.903 2°51.364 12.3 280 16.3 102420 80
2008-07-22 07:40:03 51°21.92 2°51.361 10.4 39 16.3 102440 80
2008-07-22 07:40:08 51°21.936 2°51.359 12.8 280 16.3 102440 80
2008-07-22 07:40:13 51°21.953 2°51.356 10.9 37 16.3 102440 80
2008-07-22 07:40:18 51°21.969 2°51.353 10.3 284 16.3 102440 80
2008-07-22 07:40:23 51°21.986 2°51.35 13.4 32 16.3 102440 80
2008-07-22 07:40:28 51°22.002 2°51.346 13.4 282 16.3 102430 80
2008-07-22 07:40:33 51°22.019 2°51.343 13.3 33 16.3 102430 80
2008-07-22 07:40:37 51°22.032 2°51.34 11.5 276 16.3 102440 80
2008-07-22 07:40:43 51°22.051 2°51.336 10.2 35 16.3 102440 80
2008-07-22 07:40:48 51°22.068 2°51.333 12.7 283 16.3 102440 80
2008-07-22 07:40:53 51°22.084 2°51.33 10.1 38 16.3 102430 80
2008-07-22 07:40:58 51°22.101 2°51.327 10.1 284 16.3 102430 80
2008-07-22 07:41:03 51°22.117 2°51.323 9.4 39 16.3 102430 80
2008-07-22 07:41:08 51°22.134 2°51.321 11.1 281 16.3 102430 80
2008-07-22 07:41:13 51°22.15 2°51.319 12.9 28 16.3 102430 80
2008-07-22 07:41:18 51°22.167 2°51.316 10.3 276 16.3 102430 80
2008-07-22 07:41:23 51°22.184 2°51.313 9.6 35 16.3 102430 81
2008-07-22 07:41:28 51°22.2 2°51.311 11.5 278 16.3 102430 81
2008-07-22 07:41:33 51°22.216 2°51.308 12.8 38 16.3 102430 81
2008-07-22 07:41:38 51°22.233 2°51.306 13.5 284 16.3 102430 81
2008-07-22 07:41:43 51°22.249 2°51.304 10.2 37 16.3 102420 81
2008-07-22 07:41:48 51°22.266 2°51.302 12.9 284 16.3 102420 81
2008-07-22 07:41:53 51°22.282 2°51.3 10.8 39 16.3 102420 81
2008-07-22 07:41:57 51°22.295 2°51.298 13.8 281 16.3 102420 81
2008-07-22 07:42:03 51°22.315 2°51.294 12.7 38 16.3 102430 81
2008-07-22 07:42:08 51°22.332 2°51.293 11.5 280 16.3 102430 81
2008-07-22 07:42:13 51°22.348 2°51.29 11.3 233 16.3 102440 81
2008-07-22 07:42:18 51°22.364 2°51.287 12.2 281 16.3 102440 81
2008-07-22 07:42:23 51°22.381 2°51.284 10.8 33 16.3 102430 81
2008-07-22 07:42:28 51°22.397 2°51.28 12.4 277 16.3 102430 81
2008-07-22 07:42:33 51°22.413 2°51.278 12.7 37 16.3 102420 81
2008-07-22 07:42:38 51°22.429 2°51.274 12.8 285 16.3 102420 81
2008-07-22 07:42:43 51°22.446 2°51.272 10.3 233 16.3 102430 81
2008-07-22 07:42:48 51°22.462 2°51.269 12.9 281 16.3 102430 81
2008-07-22 07:42:53 51°22.479 2°51.266 10.9 37 16.3 102450 81
2008-07-22 07:42:58 51°22.495 2°51.263 11.5 281 16.3 102450 81
2008-07-22 07:43:03 51°22.512 2°51.26 14.2 33 16.3 102450 81
2008-07-22 07:43:08 51°22.528 2°51.258 11.6 279 16.3 102430 81
2008-07-22 07:43:13 51°22.545 2°51.255 11 38 16.3 102440 81
2008-07-22 07:43:18 51°22.561 2°51.252 13.2 286 16.3 102440 81
2008-07-22 07:43:23 51°22.578 2°51.249 13.3 37 16.3 102430 81
2008-07-22 07:43:28 51°22.595 2°51.246 10.5 281 16.3 102430 81
2008-07-22 07:43:33 51°22.611 2°51.243 11.9 36 16.3 102430 81
2008-07-22 07:43:38 51°22.628 2°51.24 9.5 278 16.3 102430 81
2008-07-22 07:43:43 51°22.644 2°51.237 10 233 16.3 102430 81
2008-07-22 07:43:48 51°22.661 2°51.234 10.4 285 16.3 102430 81
2008-07-22 07:43:53 51°22.677 2°51.232 9.6 36 16.3 102440 81
2008-07-22 07:43:57 51°22.69 2°51.23 13.1 284 16.3 102440 81
2008-07-22 07:44:03 51°22.71 2°51.227 13.4 235 16.3 102440 81
2008-07-22 07:44:08 51°22.727 2°51.225 12.9 282 16.3 102440 81
2008-07-22 07:44:13 51°22.743 2°51.222 12 36 16.2 102420 81
2008-07-22 07:44:18 51°22.76 2°51.221 12.9 282 16.2 102420 81
2008-07-22 07:44:23 51°22.776 2°51.218 10.6 231 16.3 102430 81
2008-07-22 07:44:28 51°22.793 2°51.215 10.4 281 16.3 102430 81
2008-07-22 07:44:33 51°22.81 2°51.213 12.6 34 16.3 102430 82
2008-07-22 07:44:38 51°22.827 2°51.21 10.8 281 16.3 102430 82
2008-07-22 07:44:43 51°22.843 2°51.208 9.7 34 16.3 102430 82
2008-07-22 07:44:48 51°22.86 2°51.205 12.3 280 16.3 102430 82
2008-07-22 07:44:53 51°22.877 2°51.202 13.1 34 16.3 102430 82
2008-07-22 07:44:58 51°22.893 2°51.2 13 284 16.3 102430 82
2008-07-22 07:45:03 51°22.91 2°51.197 10.9 231 16.3 102430 82
2008-07-22 07:45:08 51°22.927 2°51.194 11.7 -999 16.3 102430 82
2008-07-22 07:45:13 51°22.943 2°51.192 11.8 38 16.3 102440 82
2008-07-22 07:45:17 51°22.957 2°51.189 14.3 280 16.3 102440 82
2008-07-22 07:45:23 51°22.977 2°51.186 11.5 232 16.3 102420 82
2008-07-22 07:45:28 51°22.993 2°51.183 11 281 16.3 102420 82
2008-07-22 07:45:33 51°23.01 2°51.18 10.6 39 16.3 102440 82
2008-07-22 07:45:38 51°23.027 2°51.176 14 281 16.3 102440 82
2008-07-22 07:45:43 51°23.043 2°51.172 13.6 36 16.3 102420 82
2008-07-22 07:45:48 51°23.06 2°51.17 12.8 281 16.3 102420 82
2008-07-22 07:45:53 51°23.077 2°51.168 13.2 23 16.3 102420 82
2008-07-22 07:45:58 51°23.094 2°51.165 10.2 280 16.3 102420 82
2008-07-22 07:46:03 51°23.11 2°51.164 14 34 16.3 102430 82
2008-07-22 07:46:08 51°23.127 2°51.161 13.9 -999 16.3 102430 82
2008-07-22 07:46:13 51°23.143 2°51.159 12.9 31 16.3 102430 82
2008-07-22 07:46:18 51°23.16 2°51.158 12 277 16.3 102430 82
2008-07-22 07:46:23 51°23.176 2°51.155 10.6 229 16.3 102440 82
2008-07-22 07:46:28 51°23.193 2°51.153 13.6 280 16.3 102440 82
2008-07-22 07:46:33 51°23.209 2°51.151 11.8 39 16.3 102440 82
2008-07-22 07:46:37 51°23.223 2°51.15 11 283 16.3 102440 82
2008-07-22 07:46:43 51°23.243 2°51.146 14.7 39 16.3 102430 82
2008-07-22 07:46:48 51°23.259 2°51.144 14.3 283 16.3 102430 82
2008-07-22 07:46:53 51°23.276 2°51.142 14.6 34 16.3 102430 82
2008-07-22 07:46:58 51°23.293 2°51.14 13.4 286 16.3 102430 82
2008-07-22 07:47:03 51°23.31 2°51.138 13.6 32 16.3 102430 82
2008-07-22 07:47:08 51°23.326 2°51.135 11.5 -999 16.3 102430 82
2008-07-22 07:47:13 51°23.342 2°51.133 10.3 232 16.3 102430 82
2008-07-22 07:47:18 51°23.359 2°51.13 11.3 280 16.3 102430 82
2008-07-22 07:47:23 51°23.376 2°51.127 13.2 33 16.3 102440 82
2008-07-22 07:47:28 51°23.392 2°51.124 13.1 283 16.3 102440 82
2008-07-22 07:47:33 51°23.409 2°51.122 14.1 34 16.3 102430 82
2008-07-22 07:47:38 51°23.426 2°51.119 13.4 285 16.3 102430 82
2008-07-22 07:47:43 51°23.442 2°51.117 12.8 34 16.3 102430 82
2008-07-22 07:47:48 51°23.459 2°51.114 11.9 279 16.3 102430 82
2008-07-22 07:47:53 51°23.476 2°51.112 13.6 36 16.3 102430 82
2008-07-22 07:47:57 51°23.49 2°51.111 13.7 282 16.3 102430 82
2008-07-22 07:48:03 51°23.509 2°51.108 13.3 33 16.3 102440 82
2008-07-22 07:48:08 51°23.526 2°51.106 11.4 276 16.3 102440 82
2008-07-22 07:48:13 51°23.543 2°51.103 11 39 16.3 102440 82
2008-07-22 07:48:18 51°23.559 2°51.1 14.9 281 16.3 102440 82
2008-07-22 07:48:23 51°23.575 2°51.097 13 36 16.3 102430 82
2008-07-22 07:48:28 51°23.592 2°51.095 14.3 285 16.3 102430 82
2008-07-22 07:48:33 51°23.609 2°51.092 14.6 33 16.3 102430 82
2008-07-22 07:48:38 51°23.625 2°51.089 11.4 278 16.3 102430 82
2008-07-22 07:48:43 51°23.641 2°51.086 14.3 231 16.2 102420 82
2008-07-22 07:48:48 51°23.658 2°51.083 11.5 280 16.2 102420 82
2008-07-22 07:48:53 51°23.675 2°51.08 11.8 233 16.3 102430 81
2008-07-22 07:48:58 51°23.691 2°51.077 12.6 276 16.3 102430 81
2008-07-22 07:49:03 51°23.708 2°51.075 11.8 35 16.3 102420 82
2008-07-22 07:49:08 51°23.725 2°51.071 11.6 279 16.3 102420 82
2008-07-22 07:49:13 51°23.741 2°51.068 13.8 38 16.3 102430 82
2008-07-22 07:49:17 51°23.755 2°51.066 13 283 16.3 102430 82
2008-07-22 07:49:23 51°23.775 2°51.062 10.9 232 16.3 102430 82
2008-07-22 07:49:28 51°23.791 2°51.059 11.3 278 16.3 102430 82
2008-07-22 07:49:33 51°23.808 2°51.056 14 34 16.3 102440 81
2008-07-22 07:49:38 51°23.825 2°51.053 10.9 277 16.3 102440 81
2008-07-22 07:49:43 51°23.842 2°51.05 10.3 232 16.3 102440 81
2008-07-22 07:49:48 51°23.859 2°51.048 11.1 282 16.3 102440 82
2008-07-22 07:49:53 51°23.875 2°51.044 11.2 234 16.3 102430 82
2008-07-22 07:49:58 51°23.892 2°51.041 11.4 280 16.3 102430 82
2008-07-22 07:50:03 51°23.908 2°51.038 11.2 37 16.3 102440 81
2008-07-22 07:50:08 51°23.925 2°51.035 10.5 -999 16.3 102440 81
2008-07-22 07:50:13 51°23.941 2°51.032 9.9 237 16.3 102440 81
2008-07-22 07:50:18 51°23.957 2°51.029 13.1 283 16.3 102440 81
2008-07-22 07:50:23 51°23.974 2°51.025 13 34 16.3 102430 81
2008-07-22 07:50:28 51°23.991 2°51.021 11.2 283 16.3 102430 81
2008-07-22 07:50:33 51°24.007 2°51.018 9.9 232 16.3 102450 81
2008-07-22 07:50:37 51°24.02 2°51.016 14.3 284 16.3 102450 81
2008-07-22 07:50:43 51°24.039 2°51.012 14.2 34 16.3 102430 81
2008-07-22 07:50:48 51°24.056 2°51.009 11.5 280 16.3 102430 81
2008-07-22 07:50:53 51°24.072 2°51.005 11.4 38 16.3 102450 81
2008-07-22 07:50:58 51°24.089 2°51.001 10.9 277 16.3 102450 81
2008-07-22 07:51:03 51°24.105 2°50.997 13.2 39 16.3 102420 81
2008-07-22 07:51:08 51°24.122 2°50.994 12.3 -999 16.3 102420 81
2008-07-22 07:51:13 51°24.139 2°50.99 14.4 36 16.3 102440 81
2008-07-22 07:51:18 51°24.155 2°50.988 11.6 283 16.3 102440 81
2008-07-22 07:51:23 51°24.172 2°50.984 12.9 32 16.3 102440 81
2008-07-22 07:51:28 51°24.189 2°50.981 13.8 281 16.3 102440 81
2008-07-22 07:51:33 51°24.205 2°50.977 15.4 36 16.3 102430 80
2008-07-22 07:51:38 51°24.222 2°50.973 12.1 280 16.3 102430 80
2008-07-22 07:51:43 51°24.239 2°50.97 14.4 36 16.2 102430 80
2008-07-22 07:51:48 51°24.255 2°50.967 12 282 16.2 102430 80
2008-07-22 07:51:53 51°24.271 2°50.963 11.5 35 16.3 102430 80
2008-07-22 07:51:57 51°24.284 2°50.961 10.6 281 16.3 102430 80
2008-07-22 07:52:03 51°24.303 2°50.957 12.4 32 16.2 102430 80
2008-07-22 07:52:08 51°24.319 2°50.954 14 279 16.2 102430 80
2008-07-22 07:52:13 51°24.336 2°50.95 12.6 39 16.2 102420 80
2008-07-22 07:52:18 51°24.351 2°50.946 12.1 280 16.2 102420 80
2008-07-22 07:52:23 51°24.368 2°50.942 14.7 35 16.3 102440 80
2008-07-22 07:52:28 51°24.384 2°50.939 12.7 278 16.3 102440 80
2008-07-22 07:52:33 51°24.4 2°50.935 13.8 22 16.3 102440 80
2008-07-22 07:52:38 51°24.416 2°50.932 14.7 281 16.3 102440 80
2008-07-22 07:52:43 51°24.432 2°50.928 11.6 35 16.3 102440 80
2008-07-22 07:52:48 51°24.448 2°50.924 13.8 285 16.3 102420 80
2008-07-22 07:52:53 51°24.465 2°50.92 13.4 37 16.3 102430 80
2008-07-22 07:52:57 51°24.478 2°50.918 11 283 16.3 102430 80
2008-07-22 07:53:03 51°24.497 2°50.913 12.9 33 16.3 102430 80
2008-07-22 07:53:08 51°24.514 2°50.909 10.7 280 16.2 102420 80
2008-07-22 07:53:13 51°24.53 2°50.906 10.7 40 16.2 102420 80
2008-07-22 07:53:17 51°24.543 2°50.903 13.8 280 16.2 102430 80
2008-07-22 07:53:23 51°24.563 2°50.898 11.9 37 16.2 102430 80
2008-07-22 07:53:28 51°24.579 2°50.894 11.2 279 16.2 102430 80
2008-07-22 07:53:33 51°24.595 2°50.891 14.2 34 16.2 102430 80
2008-07-22 07:53:37 51°24.608 2°50.889 12.4 275 16.3 102430 80
2008-07-22 07:53:43 51°24.627 2°50.884 12.1 39 16.3 102430 80
2008-07-22 07:53:48 51°24.643 2°50.88 12.2 280 16.3 102430 81
2008-07-22 07:53:53 51°24.659 2°50.876 11.6 33 16.3 102430 81
2008-07-22 07:53:57 51°24.672 2°50.872 13.5 282 16.3 102440 81
2008-07-22 07:54:03 51°24.691 2°50.868 13.8 35 16.3 102440 81
2008-07-22 07:54:08 51°24.707 2°50.863 10.9 25 16.3 102420 81
2008-07-22 07:54:13 51°24.724 2°50.859 13.4 38 16.3 102420 81
2008-07-22 07:54:17 51°24.737 2°50.856 12.2 282 16.3 102440 80
2008-07-22 07:54:23 51°24.756 2°50.852 10.9 38 16.3 102440 80
2008-07-22 07:54:28 51°24.772 2°50.848 13.4 285 16.3 102440 80
2008-07-22 07:54:33 51°24.788 2°50.845 14.6 35 16.3 102440 80
2008-07-22 07:54:37 51°24.801 2°50.842 13.6 281 16.3 102440 80
2008-07-22 07:54:43 51°24.82 2°50.838 13.3 231 16.3 102440 80
2008-07-22 07:54:48 51°24.836 2°50.835 12.2 280 16.3 102430 80
2008-07-22 07:54:53 51°24.853 2°50.832 13.5 38 16.3 102440 80
2008-07-22 07:54:57 51°24.867 2°50.829 13.7 280 16.3 102440 80
2008-07-22 07:55:03 51°24.888 2°50.825 13.6 40 16.3 102440 80
2008-07-22 07:55:08 51°24.902 2°50.819 12.9 24 16.3 102430 81
2008-07-22 07:55:13 51°24.918 2°50.815 11.1 37 16.4 102430 81
2008-07-22 07:55:17 51°24.931 2°50.812 10.9 278 16.4 102430 81
2008-07-22 07:55:23 51°24.95 2°50.807 12 39 16.4 102430 81
2008-07-22 07:55:28 51°24.966 2°50.804 11.6 278 16.3 102430 81
2008-07-22 07:55:33 51°24.982 2°50.8 11.3 34 16.3 102430 81
2008-07-22 07:55:37 51°24.995 2°50.796 12.1 280 16.3 102450 80
2008-07-22 07:55:43 51°25.014 2°50.792 11.1 33 16.3 102450 80
2008-07-22 07:55:48 51°25.031 2°50.788 11.5 286 16.3 102430 80
2008-07-22 07:55:53 51°25.047 2°50.784 14.9 36 16.3 102430 80
2008-07-22 07:55:57 51°25.06 2°50.781 14.2 282 16.3 102430 80
2008-07-22 07:56:03 51°25.08 2°50.778 11.6 34 16.3 102430 80
2008-07-22 07:56:08 51°25.095 2°50.773 14.6 25 16.3 102420 80
2008-07-22 07:56:13 51°25.112 2°50.769 11.9 36 16.3 102420 80
2008-07-22 07:56:18 51°25.128 2°50.766 14.9 282 16.3 102430 81
2008-07-22 07:56:23 51°25.145 2°50.762 14.9 36 16.3 102430 81
2008-07-22 07:56:28 51°25.161 2°50.759 10.4 280 16.3 102420 80
2008-07-22 07:56:33 51°25.178 2°50.755 11 37 16.3 102430 80
2008-07-22 07:56:38 51°25.194 2°50.752 14.1 285 16.3 102430 80
2008-07-22 07:56:43 51°25.21 2°50.749 14.8 35 16.3 102430 80
2008-07-22 07:56:48 51°25.227 2°50.746 14 277 16.3 102420 80
2008-07-22 07:56:53 51°25.243 2°50.742 13.9 37 16.3 102420 80
2008-07-22 07:56:58 51°25.259 2°50.738 14.1 279 16.3 102430 80
2008-07-22 07:57:03 51°25.275 2°50.734 13.3 38 16.3 102430 80
2008-07-22 07:57:08 51°25.292 2°50.73 12.2 23 16.3 102420 80
2008-07-22 07:57:13 51°25.308 2°50.727 12 33 16.3 102420 80
2008-07-22 07:57:18 51°25.324 2°50.723 11.4 281 16.3 102430 79
2008-07-22 07:57:23 51°25.34 2°50.72 14.4 33 16.3 102430 79
2008-07-22 07:57:28 51°25.356 2°50.716 11.9 282 16.3 102430 79
2008-07-22 07:57:33 51°25.372 2°50.713 14.5 37 16.3 102430 79
2008-07-22 07:57:38 51°25.389 2°50.71 12.9 280 16.3 102440 79
2008-07-22 07:57:43 51°25.405 2°50.706 12 39 16.3 102440 79
2008-07-22 07:57:48 51°25.421 2°50.703 14 279 16.3 102430 80
2008-07-22 07:57:53 51°25.438 2°50.7 14.1 231 16.3 102430 80
2008-07-22 07:57:58 51°25.454 2°50.697 13.5 277 16.3 102420 80
2008-07-22 07:58:03 51°25.47 2°50.694 11 232 16.3 102420 80
2008-07-22 07:58:08 51°25.487 2°50.691 14.2 27 16.3 102440 80
2008-07-22 07:58:13 51°25.503 2°50.688 12 35 16.3 102440 80
2008-07-22 07:58:18 51°25.519 2°50.685 14.4 280 16.3 102430 80
2008-07-22 07:58:23 51°25.536 2°50.682 13.6 33 16.3 102430 80
2008-07-22 07:58:28 51°25.552 2°50.679 11.2 279 16.3 102430 80
2008-07-22 07:58:33 51°25.568 2°50.675 13.5 38 16.3 102430 80
2008-07-22 07:58:38 51°25.584 2°50.672 11.5 280 16.3 102440 80
2008-07-22 07:58:43 51°25.601 2°50.668 11.4 40 16.3 102440 80
2008-07-22 07:58:48 51°25.617 2°50.665 13.1 282 16.3 102430 80
2008-07-22 07:58:53 51°25.634 2°50.661 11.1 36 16.3 102430 80
2008-07-22 07:58:58 51°25.65 2°50.658 11.1 282 16.4 102430 80
2008-07-22 07:59:03 51°25.666 2°50.656 13.8 35 16.4 102430 80
2008-07-22 07:59:08 51°25.682 2°50.652 15.1 277 16.3 102420 80
2008-07-22 07:59:13 51°25.698 2°50.649 11.8 234 16.3 102440 80
2008-07-22 07:59:18 51°25.715 2°50.645 10.8 286 16.3 102440 80
2008-07-22 07:59:23 51°25.731 2°50.642 11.4 234 16.3 102440 80
2008-07-22 07:59:28 51°25.747 2°50.638 13.5 283 16.3 102450 80
2008-07-22 07:59:33 51°25.763 2°50.636 13.8 232 16.3 102430 80
2008-07-22 07:59:38 51°25.779 2°50.632 11.1 281 16.3 102430 80
2008-07-22 07:59:43 51°25.795 2°50.629 13.2 36 16.3 102430 80
2008-07-22 07:59:48 51°25.811 2°50.625 10.7 284 16.3 102440 80
2008-07-22 07:59:53 51°25.827 2°50.624 14.1 34 16.3 102430 80
2008-07-22 07:59:58 51°25.843 2°50.62 13.3 280 16.3 102430 80
2008-07-22 08:00:03 51°25.859 2°50.617 11.1 34 16.3 102430 80
2008-07-22 08:00:08 51°25.875 2°50.614 11.4 26 16.3 102430 80
2008-07-22 08:00:13 51°25.891 2°50.611 14.7 32 16.3 102430 80
2008-07-22 08:00:18 51°25.907 2°50.608 12.5 280 16.3 102440 80
2008-07-22 08:00:23 51°25.923 2°50.605 10.3 234 16.3 102440 80
2008-07-22 08:00:28 51°25.939 2°50.602 11.6 278 16.3 102440 80
2008-07-22 08:00:33 51°25.954 2°50.599 13.2 234 16.3 102440 80
2008-07-22 08:00:38 51°25.97 2°50.596 12.5 283 16.3 102430 80
2008-07-22 08:00:43 51°25.986 2°50.593 12.3 35 16.3 102430 80
2008-07-22 08:00:48 51°26.002 2°50.589 12.8 281 16.3 102430 79
2008-07-22 08:00:53 51°26.018 2°50.586 9.4 34 16.3 102430 79
2008-07-22 08:00:58 51°26.034 2°50.582 13.8 283 16.3 102420 79
2008-07-22 08:01:03 51°26.05 2°50.579 13.9 36 16.3 102420 79
2008-07-22 08:01:08 51°26.066 2°50.574 12.8 283 16.3 102440 80
2008-07-22 08:01:13 51°26.082 2°50.57 13.6 36 16.3 102440 80
2008-07-22 08:01:17 51°26.095 2°50.567 11.3 277 16.3 102450 80
2008-07-22 08:01:23 51°26.114 2°50.562 14.4 35 16.3 102450 80
2008-07-22 08:01:28 51°26.13 2°50.558 12.2 285 16.3 102430 80
2008-07-22 08:01:33 51°26.146 2°50.555 15.7 32 16.3 102430 80
2008-07-22 08:01:38 51°26.162 2°50.55 12.7 280 16.3 102440 80
2008-07-22 08:01:43 51°26.178 2°50.547 12.2 37 16.3 102440 80
2008-07-22 08:01:48 51°26.194 2°50.543 13.9 281 16.3 102430 79
2008-07-22 08:01:53 51°26.21 2°50.539 14.7 37 16.3 102430 79
2008-07-22 08:01:57 51°26.223 2°50.535 13.9 284 16.3 102430 80
2008-07-22 08:02:03 51°26.243 2°50.53 11.6 34 16.3 102430 80
2008-07-22 08:02:08 51°26.259 2°50.525 13.9 21 16.3 102430 80
2008-07-22 08:02:13 51°26.276 2°50.52 14.4 35 16.3 102430 80
2008-07-22 08:02:18 51°26.292 2°50.516 13.9 284 16.3 102440 80
2008-07-22 08:02:23 51°26.309 2°50.511 14.2 37 16.3 102440 80
2008-07-22 08:02:28 51°26.324 2°50.507 11.7 286 16.2 102430 79
2008-07-22 08:02:33 51°26.34 2°50.503 11.2 37 16.2 102430 79
2008-07-22 08:02:38 51°26.356 2°50.499 12 283 16.2 102430 79
2008-07-22 08:02:43 51°26.373 2°50.494 11.9 37 16.2 102430 79
2008-07-22 08:02:48 51°26.389 2°50.49 14.5 281 16.2 102430 79
2008-07-22 08:02:53 51°26.406 2°50.486 11.7 36 16.2 102430 79
2008-07-22 08:02:58 51°26.422 2°50.481 12.4 277 16.2 102430 79
2008-07-22 08:03:03 51°26.438 2°50.478 11.4 234 16.2 102440 79
2008-07-22 08:03:08 51°26.455 2°50.474 13.6 283 16.2 102440 79
2008-07-22 08:03:13 51°26.471 2°50.471 11.1 34 16.2 102440 79
2008-07-22 08:03:18 51°26.487 2°50.467 13.2 280 16.2 102430 79
2008-07-22 08:03:23 51°26.503 2°50.464 13.6 36 16.2 102430 79
2008-07-22 08:03:28 51°26.52 2°50.46 13.9 281 16.2 102440 79
2008-07-22 08:03:33 51°26.536 2°50.457 12 37 16.2 102440 79
2008-07-22 08:03:38 51°26.553 2°50.453 12.1 278 16.2 102440 79
2008-07-22 08:03:43 51°26.568 2°50.449 12.1 233 16.2 102440 79
2008-07-22 08:03:48 51°26.585 2°50.444 10.4 281 16.2 102440 80
2008-07-22 08:03:53 51°26.601 2°50.441 13.3 37 16.2 102440 80
2008-07-22 08:03:58 51°26.617 2°50.437 13.1 278 16.2 102430 80
2008-07-22 08:04:03 51°26.633 2°50.433 13.4 36 16.2 102430 80
2008-07-22 08:04:08 51°26.649 2°50.429 12.8 21 16.3 102410 80
2008-07-22 08:04:13 51°26.665 2°50.425 14.2 32 16.3 102410 80
2008-07-22 08:04:18 51°26.68 2°50.422 14.5 280 16.2 102440 80
2008-07-22 08:04:23 51°26.696 2°50.418 11.6 35 16.2 102440 80
2008-07-22 08:04:28 51°26.713 2°50.415 12.3 286 16.2 102430 80
2008-07-22 08:04:33 51°26.729 2°50.41 10.8 36 16.2 102430 80
2008-07-22 08:04:38 51°26.745 2°50.409 14.6 277 16.2 102430 80
2008-07-22 08:04:43 51°26.76 2°50.404 10.8 38 16.2 102430 80
2008-07-22 08:04:48 51°26.777 2°50.401 11.6 284 16.2 102420 80
2008-07-22 08:04:53 51°26.793 2°50.397 12.6 37 16.2 102420 80
2008-07-22 08:04:58 51°26.809 2°50.394 13.9 286 16.2 102450 80
2008-07-22 08:05:03 51°26.825 2°50.39 13.2 36 16.2 102450 80
2008-07-22 08:05:08 51°26.841 2°50.387 11.2 22 16.2 102430 80
2008-07-22 08:05:13 51°26.857 2°50.383 11.3 38 16.2 102440 79
2008-07-22 08:05:18 51°26.873 2°50.38 10.6 282 16.2 102440 79
2008-07-22 08:05:23 51°26.889 2°50.375 13.7 36 16.2 102440 79
2008-07-22 08:05:28 51°26.905 2°50.372 12.9 282 16.2 102430 79
2008-07-22 08:05:33 51°26.921 2°50.367 12.6 38 16.2 102440 79
2008-07-22 08:05:38 51°26.937 2°50.364 12.3 283 16.2 102440 79
2008-07-22 08:05:43 51°26.953 2°50.359 12.5 35 16.2 102440 79
2008-07-22 08:05:48 51°26.97 2°50.357 12.4 277 16.2 102440 79
2008-07-22 08:05:53 51°26.986 2°50.352 12.7 39 16.2 102440 79
2008-07-22 08:05:58 51°27.002 2°50.349 11.6 281 16.2 102440 79
2008-07-22 08:06:03 51°27.018 2°50.345 13.7 40 16.2 102440 79
2008-07-22 08:06:08 51°27.034 2°50.342 14 28 16.3 102440 80
2008-07-22 08:06:13 51°27.051 2°50.338 10.8 37 16.3 102440 80
2008-07-22 08:06:18 51°27.067 2°50.334 13.2 282 16.3 102440 80
2008-07-22 08:06:23 51°27.083 2°50.33 13.5 36 16.3 102440 80
2008-07-22 08:06:28 51°27.099 2°50.326 14.8 280 16.3 102440 81
2008-07-22 08:06:33 51°27.115 2°50.322 13.3 38 16.3 102440 81
2008-07-22 08:06:38 51°27.131 2°50.318 12.3 284 16.3 102440 80
2008-07-22 08:06:43 51°27.147 2°50.313 11.1 34 16.3 102440 80
2008-07-22 08:06:48 51°27.162 2°50.31 10.4 279 16.3 102440 80
2008-07-22 08:06:53 51°27.178 2°50.304 12.8 34 16.3 102440 80
2008-07-22 08:06:58 51°27.194 2°50.302 13.7 281 16.3 102440 80
2008-07-22 08:07:03 51°27.21 2°50.298 13.9 34 16.2 102450 79
2008-07-22 08:07:08 51°27.225 2°50.294 10.2 23 16.2 102450 79
2008-07-22 08:07:13 51°27.242 2°50.29 13.6 36 16.2 102450 79
2008-07-22 08:07:18 51°27.258 2°50.286 12.1 282 16.2 102440 80
2008-07-22 08:07:23 51°27.274 2°50.283 13.5 35 16.2 102430 79
2008-07-22 08:07:28 51°27.29 2°50.279 11.1 277 16.2 102430 79
2008-07-22 08:07:33 51°27.306 2°50.275 11.3 231 16.2 102430 79
2008-07-22 08:07:38 51°27.322 2°50.272 11.9 282 16.2 102440 80
2008-07-22 08:07:43 51°27.338 2°50.268 13 36 16.2 102440 79
2008-07-22 08:07:48 51°27.354 2°50.264 13.7 283 16.2 102440 79
2008-07-22 08:07:53 51°27.371 2°50.26 9.8 233 16.2 102440 79
2008-07-22 08:07:58 51°27.387 2°50.256 13.4 280 16.2 102440 79
2008-07-22 08:08:03 51°27.403 2°50.253 13 231 16.2 102440 79
2008-07-22 08:08:08 51°27.419 2°50.249 10.9 25 16.2 102450 79
2008-07-22 08:08:13 51°27.436 2°50.246 12.4 34 16.2 102450 79
2008-07-22 08:08:18 51°27.452 2°50.242 10.5 280 16.2 102430 79
2008-07-22 08:08:23 51°27.468 2°50.239 12 40 16.2 102430 79
2008-07-22 08:08:28 51°27.484 2°50.235 14.3 276 16.2 102440 79
2008-07-22 08:08:33 51°27.5 2°50.232 11.6 38 16.2 102440 79
2008-07-22 08:08:38 51°27.516 2°50.228 11.6 281 16.2 102440 80
2008-07-22 08:08:43 51°27.533 2°50.224 13.6 35 16.2 102440 80
2008-07-22 08:08:48 51°27.549 2°50.221 14.1 280 16.2 102440 80
2008-07-22 08:08:53 51°27.565 2°50.217 12.3 40 16.2 102440 80
2008-07-22 08:08:58 51°27.581 2°50.214 10.7 277 16.2 102430 80
2008-07-22 08:09:03 51°27.598 2°50.211 11.4 38 16.2 102430 80
2008-07-22 08:09:08 51°27.614 2°50.207 13.9 25 16.2 102440 79
2008-07-22 08:09:13 51°27.63 2°50.203 12.8 36 16.2 102440 79
2008-07-22 08:09:18 51°27.646 2°50.199 11.1 286 16.2 102440 80
2008-07-22 08:09:23 51°27.662 2°50.195 14.2 34 16.2 102440 80
2008-07-22 08:09:28 51°27.678 2°50.191 11.4 280 16.3 102450 80